Kezdőlap
METAR-TAF:

METAR-TAF

Repülőterek :

Łódź, Lengyelország

földrajzi szélesség: 51-43-19N, földrajzi hosszúság: 019-23-53E, magasság: 184 m

Jelenlegi meteorológiai megfigyelések

A jelentés 36 perccel ezelõtt készült, 09:30 UTC
Kelet-délkeleti szél 8 kt, kelet-északkeleti és déli között változik
Hőmérséklet 26°C
Páratartalom 42%
Légköri nyomás 1024 hPa
Látótávolság 10 km, vagy több
felhőtlen 1500 m magasságban, és nincs gomolyfelhõ

METAR: EPLL 280930Z 11008KT 070V180 CAVOK 26/12 Q1024

Idő: 12:06 (10:06 UTC)

Előrejelzés

A jelentés 4 órával és 36 perccel ezelõtt készült, 05:30 UTC
Az előrejelzés 28-én 06 óra UTC és 29-én 06 óra UTC között érvényes
Keleti szél 10 kt
Látótávolság 10 km, vagy több
felhőtlen 1500 m magasságban, és nincs gomolyfelhõ

TAF: EPLL 280530Z 2806/2906 10010KT CAVOK

Meteorológiai megfigyelések és előrejelzések több, mint 4000 repülőtéren (METAR és TAF jelentéseket).

A térképen piros és sárga pontok jelzik az elérhető meteorológiai állomásokat.

Mozgassa az egeret a pont fölött, hogy megjelenjen az állomás neve.

Azután kattintson az időjárási megfigyelések és előrejelzések megtekintéséhez.

A térkép megváltoztatása: kattintson a fekete keresztel jelölt zöld gombra ráközelítéshez, a vonallal jelölt zöld gombra távolításhoz, vagy a zöld nyilakra a szomszédos térképek eléréséhez.


METAR-TAF: